createdAt,value
2023-04-09T00:00:15.473Z,102738.94
2023-04-09T00:02:44.355Z,102735.38
2023-04-09T00:05:12.822Z,102738.81
2023-04-09T00:07:43.209Z,102742.38
2023-04-09T00:10:12.726Z,102742.47
2023-04-09T00:12:41.120Z,102736.41
2023-04-09T00:15:20.629Z,102737.34
2023-04-09T00:17:57.531Z,102746.03
2023-04-09T00:20:27.106Z,102742.53
2023-04-09T00:22:56.564Z,102737.28
2023-04-09T00:25:25.545Z,102739.03
2023-04-09T00:27:53.963Z,102730.31
2023-04-09T00:30:23.850Z,102732.09
2023-04-09T00:32:53.250Z,102726.84
2023-04-09T00:35:22.571Z,102723.28
2023-04-09T00:37:51.443Z,102725.91
2023-04-09T00:40:19.969Z,102717.97
2023-04-09T00:42:49.226Z,102717.84
2023-04-09T00:45:17.470Z,102724.75
2023-04-09T00:47:48.147Z,102717.75
2023-04-09T00:50:17.787Z,102717.75
2023-04-09T00:52:46.722Z,102715.13
2023-04-09T00:55:15.431Z,102713.41
2023-04-09T00:57:43.697Z,102708.94
2023-04-09T01:00:14.020Z,102705.38
2023-04-09T01:02:42.757Z,102707.13
2023-04-09T01:05:13.651Z,102707.94
2023-04-09T01:07:58.111Z,102708.75
2023-04-09T01:10:38.692Z,102709.53
2023-04-09T01:13:13.912Z,102702.56
2023-04-09T01:15:49.775Z,102707.78
2023-04-09T01:18:26.559Z,102705.19
2023-04-09T01:21:04.256Z,102706.09
2023-04-09T01:23:44.592Z,102695.59
2023-04-09T01:26:32.222Z,102702.56
2023-04-09T01:29:03.659Z,102699.06
2023-04-09T01:31:39.013Z,102685.13
2023-04-09T01:34:10.141Z,102691.25
2023-04-09T01:36:41.189Z,102684.19
2023-04-09T01:39:10.175Z,102696.50
2023-04-09T01:41:39.388Z,102695.63
2023-04-09T01:44:10.945Z,102686.00
2023-04-09T01:46:41.378Z,102691.19
2023-04-09T01:49:11.502Z,102699.06
2023-04-09T01:51:40.124Z,102693.88
2023-04-09T01:54:08.428Z,102696.44
2023-04-09T01:56:44.627Z,102691.13
2023-04-09T01:59:15.018Z,102691.13
2023-04-09T02:01:47.609Z,102700.72
2023-04-09T02:04:24.775Z,102701.53
2023-04-09T02:07:04.491Z,102696.28
2023-04-09T02:09:35.374Z,102691.03
2023-04-09T02:12:08.388Z,102685.78
2023-04-09T02:14:39.926Z,102689.28
2023-04-09T02:17:08.458Z,102685.66
2023-04-09T02:19:41.893Z,102691.78
2023-04-09T02:22:11.389Z,102684.72
2023-04-09T02:24:40.482Z,102687.38
2023-04-09T02:27:10.129Z,102686.53
2023-04-09T02:29:41.912Z,102687.38
2023-04-09T02:32:10.343Z,102684.72
2023-04-09T02:34:38.711Z,102685.66
2023-04-09T02:37:07.657Z,102690.00
2023-04-09T02:39:36.147Z,102691.78
2023-04-09T02:42:04.482Z,102690.94
2023-04-09T02:44:33.075Z,102689.16
2023-04-09T02:47:03.296Z,102680.47
2023-04-09T02:49:31.883Z,102683.03
2023-04-09T02:52:00.147Z,102679.53
2023-04-09T02:54:28.563Z,102678.59
2023-04-09T02:56:57.559Z,102667.22
2023-04-09T02:59:29.570Z,102660.19
2023-04-09T03:01:57.963Z,102666.22
2023-04-09T03:04:28.038Z,102661.81
2023-04-09T03:06:56.850Z,102655.72
2023-04-09T03:09:25.538Z,102668.91
2023-04-09T03:11:53.981Z,102666.31
2023-04-09T03:14:29.300Z,102663.69
2023-04-09T03:16:58.087Z,102662.78
2023-04-09T03:19:28.290Z,102661.97
2023-04-09T03:21:57.094Z,102655.81
2023-04-09T03:24:26.042Z,102655.81
2023-04-09T03:26:54.862Z,102650.56
2023-04-09T03:29:23.656Z,102649.63
2023-04-09T03:31:52.476Z,102646.09
2023-04-09T03:34:21.335Z,102641.59
2023-04-09T03:36:51.406Z,102639.72
2023-04-09T03:39:19.987Z,102636.06
2023-04-09T03:41:48.706Z,102632.34
2023-04-09T03:44:16.977Z,102633.88
2023-04-09T03:46:45.597Z,102635.44
2023-04-09T03:49:14.054Z,102643.16
2023-04-09T03:51:42.429Z,102640.53
2023-04-09T03:54:12.365Z,102637.88
2023-04-09T03:56:44.672Z,102637.78
2023-04-09T03:59:13.020Z,102637.63
2023-04-09T04:01:41.354Z,102640.16
2023-04-09T04:04:09.918Z,102637.41
2023-04-09T04:06:38.508Z,102639.94
2023-04-09T04:09:06.988Z,102637.31
2023-04-09T04:11:36.691Z,102644.38
2023-04-09T04:14:04.915Z,102641.88
2023-04-09T04:16:33.432Z,102646.22
2023-04-09T04:19:01.756Z,102643.44
2023-04-09T04:21:30.076Z,102639.84
2023-04-09T04:23:58.714Z,102650.19
2023-04-09T04:26:28.020Z,102644.84
2023-04-09T04:28:57.964Z,102646.47
2023-04-09T04:31:27.291Z,102648.88
2023-04-09T04:33:55.958Z,102649.44
2023-04-09T04:36:25.031Z,102642.94
2023-04-09T04:38:53.625Z,102649.53
2023-04-09T04:41:23.376Z,102650.13
2023-04-09T04:43:52.048Z,102646.59
2023-04-09T04:46:30.265Z,102654.59
2023-04-09T04:48:58.742Z,102652.00
2023-04-09T04:51:28.231Z,102653.09
2023-04-09T04:53:57.049Z,102653.13
2023-04-09T04:56:26.917Z,102659.38
2023-04-09T04:58:55.952Z,102665.66
2023-04-09T05:01:26.139Z,102667.53
2023-04-09T05:03:55.059Z,102664.16
2023-04-09T05:06:23.631Z,102661.59
2023-04-09T05:08:52.679Z,102661.69
2023-04-09T05:11:21.230Z,102669.69
2023-04-09T05:13:49.889Z,102667.16
2023-04-09T05:16:18.908Z,102670.66
2023-04-09T05:18:50.427Z,102669.03
2023-04-09T05:21:18.905Z,102660.34
2023-04-09T05:23:47.769Z,102665.72
2023-04-09T05:26:16.508Z,102659.72
2023-04-09T05:28:44.746Z,102661.59
2023-04-09T05:31:13.488Z,102664.38
2023-04-09T05:33:42.024Z,102661.81
2023-04-09T05:36:17.589Z,102671.56
2023-04-09T05:38:48.019Z,102670.78
2023-04-09T05:41:16.614Z,102679.63
2023-04-09T05:43:44.947Z,102666.53
2023-04-09T05:46:13.365Z,102664.84
2023-04-09T05:48:41.847Z,102663.19
2023-04-09T05:51:11.793Z,102665.91
2023-04-09T05:53:40.071Z,102661.63
2023-04-09T05:56:15.836Z,102659.94
2023-04-09T05:58:44.216Z,102658.28
2023-04-09T06:01:12.514Z,102667.09
2023-04-09T06:03:41.702Z,102661.97
2023-04-09T06:06:11.544Z,102656.75
2023-04-09T06:08:39.825Z,102660.22
2023-04-09T06:11:11.188Z,102660.38
2023-04-09T06:13:40.345Z,102650.72
2023-04-09T06:16:10.240Z,102662.84
2023-04-09T06:18:38.909Z,102668.09
2023-04-09T06:21:08.915Z,102664.69
2023-04-09T06:23:38.745Z,102667.38
2023-04-09T06:26:07.323Z,102672.75
2023-04-09T06:28:36.604Z,102670.13
2023-04-09T06:31:05.225Z,102677.34
2023-04-09T06:33:33.806Z,102673.03
2023-04-09T06:36:02.044Z,102688.78
2023-04-09T06:38:30.486Z,102685.41
2023-04-09T06:41:00.146Z,102695.13
2023-04-09T06:43:28.569Z,102698.69
2023-04-09T06:45:57.325Z,102687.56
2023-04-09T06:48:26.355Z,102689.59
2023-04-09T06:50:55.036Z,102685.56
2023-04-09T06:53:23.529Z,102686.66
2023-04-09T06:55:53.666Z,102681.53
2023-04-09T06:58:24.909Z,102678.91
2023-04-09T07:00:53.289Z,102672.88
2023-04-09T07:03:22.137Z,102672.13
2023-04-09T07:05:51.991Z,102663.31
2023-04-09T07:08:23.027Z,102665.00
2023-04-09T07:10:52.028Z,102678.06
2023-04-09T07:13:23.432Z,102677.09
2023-04-09T07:15:53.337Z,102680.00
2023-04-09T07:18:23.541Z,102681.16
2023-04-09T07:20:53.273Z,102678.78
2023-04-09T07:23:22.945Z,102681.75
2023-04-09T07:25:52.611Z,102682.81
2023-04-09T07:28:22.662Z,102676.13
2023-04-09T07:30:53.436Z,102679.22
2023-04-09T07:33:22.355Z,102677.84
2023-04-09T07:35:51.283Z,102678.06
2023-04-09T07:38:19.927Z,102678.88
2023-04-09T07:40:48.438Z,102684.06
2023-04-09T07:43:18.951Z,102685.13
2023-04-09T07:45:52.829Z,102682.09
2023-04-09T07:48:21.413Z,102676.59
2023-04-09T07:50:50.249Z,102680.44
2023-04-09T07:53:19.764Z,102685.91
2023-04-09T07:55:48.196Z,102683.53
2023-04-09T07:58:17.011Z,102674.09
2023-04-09T08:00:45.358Z,102681.25
2023-04-09T08:03:15.424Z,102681.66
2023-04-09T08:05:44.066Z,102678.78
2023-04-09T08:08:14.640Z,102677.25
2023-04-09T08:10:43.603Z,102685.06
2023-04-09T08:13:12.117Z,102672.47
2023-04-09T08:15:40.628Z,102679.69
2023-04-09T08:18:09.375Z,102675.53
2023-04-09T08:20:44.952Z,102677.63
2023-04-09T08:23:13.547Z,102681.94
2023-04-09T08:25:41.805Z,102679.28
2023-04-09T08:28:10.114Z,102675.06
2023-04-09T08:30:38.516Z,102671.75
2023-04-09T08:33:07.053Z,102677.22
2023-04-09T08:35:35.342Z,102674.94
2023-04-09T08:38:04.985Z,102670.75
2023-04-09T08:40:36.690Z,102673.22
2023-04-09T08:43:07.292Z,102667.66
2023-04-09T08:45:35.753Z,102670.28
2023-04-09T08:48:05.528Z,102670.47
2023-04-09T08:50:34.820Z,102663.69
2023-04-09T08:53:08.069Z,102663.75
2023-04-09T08:55:37.414Z,102676.22
2023-04-09T08:58:07.509Z,102659.78
2023-04-09T09:00:35.882Z,102663.63
2023-04-09T09:03:08.360Z,102662.84
2023-04-09T09:05:41.292Z,102664.63
2023-04-09T09:08:13.777Z,102663.91
2023-04-09T09:10:44.371Z,102665.00
2023-04-09T09:13:21.365Z,102662.44
2023-04-09T09:15:55.137Z,102659.03
2023-04-09T09:18:39.235Z,102652.22
2023-04-09T09:21:15.885Z,102656.06
2023-04-09T09:23:45.950Z,102652.69
2023-04-09T09:26:16.483Z,102657.00
2023-04-09T09:28:45.562Z,102648.94
2023-04-09T09:31:14.996Z,102655.91
2023-04-09T09:33:43.595Z,102648.06
2023-04-09T09:36:12.106Z,102652.56
2023-04-09T09:38:56.299Z,102649.38
2023-04-09T09:41:26.193Z,102650.53
2023-04-09T09:43:55.082Z,102643.53
2023-04-09T09:46:26.509Z,102642.66
2023-04-09T09:48:58.311Z,102648.94
2023-04-09T09:51:28.944Z,102635.75
2023-04-09T09:53:59.399Z,102628.91
2023-04-09T09:56:37.046Z,102635.16
2023-04-09T09:59:12.291Z,102633.53
2023-04-09T10:01:41.934Z,102631.00
2023-04-09T10:04:15.821Z,102631.00
2023-04-09T10:06:46.464Z,102633.66
2023-04-09T10:09:17.361Z,102634.56
2023-04-09T10:11:48.271Z,102634.56
2023-04-09T10:14:17.838Z,102627.53
2023-04-09T10:16:46.296Z,102620.44
2023-04-09T10:19:15.315Z,102626.53
2023-04-09T10:21:55.006Z,102623.03
2023-04-09T10:24:25.220Z,102622.25
2023-04-09T10:26:57.240Z,102623.19
2023-04-09T10:29:29.979Z,102612.59
2023-04-09T10:32:07.183Z,102620.53
2023-04-09T10:34:39.287Z,102615.31
2023-04-09T10:37:10.709Z,102604.69
2023-04-09T10:39:46.253Z,102613.47
2023-04-09T10:42:22.156Z,102607.31
2023-04-09T10:45:08.258Z,102599.28
2023-04-09T10:47:39.543Z,102591.16
2023-04-09T10:50:26.921Z,102592.13
2023-04-09T10:52:57.484Z,102593.97
2023-04-09T10:55:37.389Z,102591.31
2023-04-09T10:58:09.747Z,102586.72
2023-04-09T11:00:42.101Z,102578.72
2023-04-09T11:03:30.571Z,102572.44
2023-04-09T11:06:06.184Z,102572.31
2023-04-09T11:08:35.510Z,102567.00
2023-04-09T11:11:06.019Z,102575.03
2023-04-09T11:13:36.220Z,102572.31
2023-04-09T11:16:07.206Z,102568.75
2023-04-09T11:18:37.176Z,102567.00
2023-04-09T11:21:05.952Z,102569.75
2023-04-09T11:23:36.742Z,102562.81
2023-04-09T11:26:07.264Z,102557.50
2023-04-09T11:28:38.508Z,102557.47
2023-04-09T11:31:07.461Z,102553.94
2023-04-09T11:33:36.206Z,102554.69
2023-04-09T11:36:07.681Z,102558.94
2023-04-09T11:38:38.075Z,102554.59
2023-04-09T11:41:12.675Z,102554.59
2023-04-09T11:43:41.190Z,102556.38
2023-04-09T11:46:10.464Z,102551.19
2023-04-09T11:48:38.992Z,102550.28
2023-04-09T11:51:07.610Z,102549.97
2023-04-09T11:53:38.985Z,102550.47
2023-04-09T11:56:09.129Z,102543.09
2023-04-09T11:58:37.615Z,102549.72
2023-04-09T12:01:06.199Z,102540.69
2023-04-09T12:03:37.480Z,102533.47
2023-04-09T12:06:09.364Z,102530.13
2023-04-09T12:08:38.373Z,102530.84
2023-04-09T12:11:16.655Z,102524.84
2023-04-09T12:13:45.157Z,102542.06
2023-04-09T12:16:14.122Z,102536.13
2023-04-09T12:18:42.609Z,102532.91
2023-04-09T12:21:11.254Z,102527.47
2023-04-09T12:23:39.589Z,102521.34
2023-04-09T12:26:08.172Z,102524.41
2023-04-09T12:28:37.941Z,102520.50
2023-04-09T12:31:06.392Z,102508.19
2023-04-09T12:33:34.653Z,102516.09
2023-04-09T12:36:02.900Z,102518.69
2023-04-09T12:38:31.600Z,102516.19
2023-04-09T12:41:01.428Z,102512.41
2023-04-09T12:43:30.039Z,102512.69
2023-04-09T12:46:00.312Z,102514.81
2023-04-09T12:48:28.634Z,102519.56
2023-04-09T12:50:57.538Z,102515.53
2023-04-09T12:53:26.374Z,102508.41
2023-04-09T12:55:55.246Z,102509.16
2023-04-09T12:58:23.568Z,102513.91
2023-04-09T13:00:54.721Z,102512.13
2023-04-09T13:03:25.328Z,102512.75
2023-04-09T13:05:53.841Z,102493.94
2023-04-09T13:08:22.585Z,102500.28
2023-04-09T13:10:51.746Z,102497.72
2023-04-09T13:13:20.122Z,102491.44
2023-04-09T13:15:50.966Z,102498.44
2023-04-09T13:18:20.067Z,102489.63
2023-04-09T13:20:50.222Z,102491.41
2023-04-09T13:23:18.527Z,102490.19
2023-04-09T13:25:46.839Z,102479.59
2023-04-09T13:28:15.192Z,102480.66
2023-04-09T13:30:43.756Z,102483.81
2023-04-09T13:33:12.164Z,102472.13
2023-04-09T13:35:40.604Z,102482.03
2023-04-09T13:38:10.359Z,102473.44
2023-04-09T13:40:39.339Z,102471.28
2023-04-09T13:43:07.684Z,102482.56
2023-04-09T13:45:36.504Z,102474.94
2023-04-09T13:48:05.145Z,102480.72
2023-04-09T13:50:33.461Z,102482.03
2023-04-09T13:53:05.238Z,102465.28
2023-04-09T13:55:34.975Z,102465.84
2023-04-09T13:58:03.264Z,102454.53
2023-04-09T14:00:32.521Z,102454.47
2023-04-09T14:03:03.042Z,102450.59
2023-04-09T14:05:32.322Z,102441.94
2023-04-09T14:08:00.802Z,102439.66
2023-04-09T14:10:29.176Z,102444.59
2023-04-09T14:12:58.834Z,102435.25
2023-04-09T14:15:28.153Z,102434.03
2023-04-09T14:17:56.895Z,102438.97
2023-04-09T14:20:26.036Z,102438.41
2023-04-09T14:22:54.477Z,102437.00
2023-04-09T14:25:23.574Z,102442.63
2023-04-09T14:27:52.267Z,102426.53
2023-04-09T14:30:22.503Z,102426.84
2023-04-09T14:32:51.427Z,102436.38
2023-04-09T14:35:20.165Z,102425.13
2023-04-09T14:37:48.672Z,102416.53
2023-04-09T14:40:16.835Z,102410.72
2023-04-09T14:42:46.568Z,102410.91
2023-04-09T14:45:14.867Z,102414.03
2023-04-09T14:47:44.915Z,102409.03
2023-04-09T14:50:13.219Z,102401.41
2023-04-09T14:52:42.054Z,102393.13
2023-04-09T14:55:12.427Z,102400.72
2023-04-09T14:57:42.125Z,102401.47
2023-04-09T15:00:13.109Z,102404.13
2023-04-09T15:02:41.852Z,102402.78
2023-04-09T15:05:14.485Z,102401.16
2023-04-09T15:07:43.651Z,102391.25
2023-04-09T15:10:12.880Z,102384.88
2023-04-09T15:12:41.132Z,102381.03
2023-04-09T15:15:11.353Z,102368.97
2023-04-09T15:17:39.699Z,102365.31
2023-04-09T15:20:09.494Z,102365.84
2023-04-09T15:22:39.153Z,102365.84
2023-04-09T15:25:08.660Z,102363.59
2023-04-09T15:27:37.036Z,102377.22
2023-04-09T15:30:07.151Z,102365.84
2023-04-09T15:32:35.428Z,102370.19
2023-04-09T15:35:03.896Z,102366.06
2023-04-09T15:37:32.652Z,102366.81
2023-04-09T15:40:02.285Z,102361.94
2023-04-09T15:42:30.929Z,102364.44
2023-04-09T15:44:59.165Z,102362.91
2023-04-09T15:47:29.620Z,102359.06
2023-04-09T15:49:59.870Z,102367.38
2023-04-09T15:52:30.272Z,102356.81
2023-04-09T15:54:58.925Z,102345.91
2023-04-09T15:57:29.104Z,102347.94
2023-04-09T15:59:57.723Z,102350.91
2023-04-09T16:02:26.645Z,102344.59
2023-04-09T16:04:55.296Z,102344.38
2023-04-09T16:07:23.553Z,102332.75
2023-04-09T16:09:52.431Z,102333.25
2023-04-09T16:12:23.442Z,102331.47
2023-04-09T16:14:55.210Z,102327.03
2023-04-09T16:17:24.294Z,102320.06
2023-04-09T16:19:53.263Z,102315.16
2023-04-09T16:22:22.363Z,102315.69
2023-04-09T16:24:51.250Z,102307.28
2023-04-09T16:27:19.930Z,102309.75
2023-04-09T16:29:48.806Z,102308.97
2023-04-09T16:32:18.591Z,102305.19
2023-04-09T16:34:47.488Z,102297.28
2023-04-09T16:37:15.810Z,102299.81
2023-04-09T16:39:44.394Z,102291.16
2023-04-09T16:42:12.802Z,102293.47
2023-04-09T16:44:41.762Z,102292.69
2023-04-09T16:47:10.044Z,102294.06
2023-04-09T16:49:40.009Z,102306.47
2023-04-09T16:52:08.328Z,102306.94
2023-04-09T16:54:36.615Z,102312.75
2023-04-09T16:57:05.104Z,102307.16
2023-04-09T16:59:33.475Z,102303.59
2023-04-09T17:02:01.938Z,102297.38
2023-04-09T17:04:31.613Z,102314.06
2023-04-09T17:07:01.552Z,102313.03
2023-04-09T17:09:30.052Z,102314.75
2023-04-09T17:11:58.986Z,102313.97
2023-04-09T17:14:27.880Z,102303.25
2023-04-09T17:16:56.850Z,102300.44
2023-04-09T17:19:25.570Z,102308.53
2023-04-09T17:21:53.990Z,102309.03
2023-04-09T17:24:24.534Z,102306.03
2023-04-09T17:26:53.824Z,102309.06
2023-04-09T17:29:22.656Z,102318.88
2023-04-09T17:31:53.083Z,102316.97
2023-04-09T17:34:21.593Z,102311.88
2023-04-09T17:36:56.579Z,102309.09
2023-04-09T17:39:26.739Z,102312.88
2023-04-09T17:41:56.584Z,102314.06
2023-04-09T17:44:26.500Z,102315.84
2023-04-09T17:46:55.317Z,102308.72
2023-04-09T17:49:25.332Z,102316.38
2023-04-09T17:51:53.763Z,102328.66
2023-04-09T17:54:22.710Z,102319.53
2023-04-09T17:56:57.538Z,102322.13
2023-04-09T17:59:26.412Z,102329.00
2023-04-09T18:01:57.229Z,102331.31
2023-04-09T18:04:26.674Z,102331.75
2023-04-09T18:06:56.635Z,102320.59
2023-04-09T18:09:25.279Z,102322.59
2023-04-09T18:11:56.561Z,102324.53
2023-04-09T18:14:25.448Z,102328.13
2023-04-09T18:16:53.810Z,102337.00
2023-04-09T18:19:22.558Z,102329.06
2023-04-09T18:21:51.732Z,102328.13
2023-04-09T18:24:20.290Z,102326.31
2023-04-09T18:26:49.116Z,102320.03
2023-04-09T18:29:18.956Z,102335.84
2023-04-09T18:31:47.356Z,102338.38
2023-04-09T18:34:15.836Z,102340.84
2023-04-09T18:36:44.130Z,102346.91
2023-04-09T18:39:12.403Z,102340.63
2023-04-09T18:41:41.313Z,102336.06
2023-04-09T18:44:09.689Z,102339.50
2023-04-09T18:46:39.759Z,102335.84
2023-04-09T18:49:08.229Z,102333.06
2023-04-09T18:51:36.796Z,102336.44
2023-04-09T18:54:05.832Z,102338.09
2023-04-09T18:56:34.511Z,102335.31
2023-04-09T18:59:03.088Z,102332.50
2023-04-09T19:01:31.618Z,102329.78
2023-04-09T19:04:01.708Z,102334.88
2023-04-09T19:06:30.543Z,102340.03
2023-04-09T19:08:59.252Z,102335.50
2023-04-09T19:11:29.047Z,102340.66
2023-04-09T19:13:58.570Z,102337.91
2023-04-09T19:16:28.661Z,102347.44
2023-04-09T19:18:58.166Z,102352.56
2023-04-09T19:21:29.180Z,102352.41
2023-04-09T19:24:00.186Z,102348.72
2023-04-09T19:26:28.876Z,102350.38
2023-04-09T19:28:58.107Z,102345.88
2023-04-09T19:31:27.040Z,102349.28
2023-04-09T19:33:55.664Z,102351.75
2023-04-09T19:36:24.541Z,102345.44
2023-04-09T19:38:54.360Z,102340.03
2023-04-09T19:41:23.481Z,102343.38
2023-04-09T19:43:51.817Z,102344.13
2023-04-09T19:46:21.714Z,102340.50
2023-04-09T19:48:50.403Z,102346.50
2023-04-09T19:51:20.486Z,102349.81
2023-04-09T19:53:49.322Z,102356.69
2023-04-09T19:56:21.472Z,102357.47
2023-04-09T19:58:49.690Z,102355.53
2023-04-09T20:01:17.971Z,102351.91
2023-04-09T20:03:47.231Z,102353.59
2023-04-09T20:06:15.762Z,102358.72
2023-04-09T20:08:44.561Z,102357.75
2023-04-09T20:11:19.309Z,102363.72
2023-04-09T20:13:48.159Z,102358.34
2023-04-09T20:16:16.616Z,102355.59
2023-04-09T20:18:44.969Z,102346.72
2023-04-09T20:21:14.452Z,102353.56
2023-04-09T20:23:45.351Z,102345.56
2023-04-09T20:26:13.873Z,102342.84
2023-04-09T20:28:43.651Z,102340.06
2023-04-09T20:31:13.446Z,102331.25
2023-04-09T20:33:41.877Z,102332.00
2023-04-09T20:36:16.773Z,102324.88
2023-04-09T20:38:45.352Z,102333.59
2023-04-09T20:41:13.661Z,102323.91
2023-04-09T20:43:43.327Z,102323.78
2023-04-09T20:46:12.029Z,102315.88
2023-04-09T20:48:40.727Z,102321.00
2023-04-09T20:51:11.356Z,102311.28
2023-04-09T20:53:40.275Z,102322.53
2023-04-09T20:56:09.556Z,102318.06
2023-04-09T20:58:39.262Z,102318.00
2023-04-09T21:01:11.006Z,102323.25
2023-04-09T21:03:42.709Z,102321.38
2023-04-09T21:06:12.349Z,102318.69
2023-04-09T21:08:42.732Z,102312.53
2023-04-09T21:11:11.369Z,102319.47
2023-04-09T21:13:53.124Z,102319.41
2023-04-09T21:16:26.422Z,102309.69
2023-04-09T21:18:55.618Z,102311.38
2023-04-09T21:21:24.307Z,102306.97
2023-04-09T21:23:52.936Z,102304.28
2023-04-09T21:26:21.742Z,102305.13
2023-04-09T21:28:51.605Z,102304.19
2023-04-09T21:31:20.695Z,102301.47
2023-04-09T21:33:50.653Z,102297.94
2023-04-09T21:36:18.969Z,102296.97
2023-04-09T21:38:47.201Z,102297.78
2023-04-09T21:41:15.906Z,102296.88
2023-04-09T21:43:44.274Z,102304.63
2023-04-09T21:46:12.935Z,102306.25
2023-04-09T21:48:41.473Z,102305.31
2023-04-09T21:51:12.786Z,102308.69
2023-04-09T21:53:41.309Z,102302.50
2023-04-09T21:56:10.420Z,102310.25
2023-04-09T21:58:38.772Z,102311.88
2023-04-09T22:01:15.819Z,102303.91
2023-04-09T22:03:51.455Z,102307.28
2023-04-09T22:06:21.829Z,102309.78
2023-04-09T22:08:56.402Z,102301.78
2023-04-09T22:11:28.489Z,102309.59
2023-04-09T22:13:58.546Z,102306.84
2023-04-09T22:16:28.264Z,102304.97
2023-04-09T22:18:57.175Z,102309.22
2023-04-09T22:21:30.122Z,102294.25
2023-04-09T22:23:58.722Z,102301.97
2023-04-09T22:26:28.210Z,102294.94
2023-04-09T22:28:56.872Z,102301.81
2023-04-09T22:31:25.767Z,102299.94
2023-04-09T22:33:54.202Z,102299.00
2023-04-09T22:36:23.993Z,102300.75
2023-04-09T22:38:53.946Z,102302.44
2023-04-09T22:41:23.233Z,102301.44
2023-04-09T22:43:52.562Z,102301.38
2023-04-09T22:46:22.414Z,102305.66
2023-04-09T22:48:51.817Z,102300.34
2023-04-09T22:51:20.529Z,102300.25
2023-04-09T22:53:48.960Z,102306.31
2023-04-09T22:56:19.532Z,102297.53
2023-04-09T22:58:48.054Z,102300.97
2023-04-09T23:01:21.903Z,102300.03
2023-04-09T23:03:51.775Z,102296.53
2023-04-09T23:06:20.716Z,102291.19
2023-04-09T23:08:49.390Z,102283.25
2023-04-09T23:11:19.240Z,102286.69
2023-04-09T23:13:47.610Z,102283.13
2023-04-09T23:16:16.276Z,102274.31
2023-04-09T23:18:45.651Z,102271.66
2023-04-09T23:21:14.134Z,102269.78
2023-04-09T23:23:42.496Z,102264.53
2023-04-09T23:26:11.108Z,102256.63
2023-04-09T23:28:40.984Z,102252.25
2023-04-09T23:31:10.210Z,102251.31
2023-04-09T23:33:38.561Z,102256.41
2023-04-09T23:36:07.997Z,102257.28
2023-04-09T23:38:36.314Z,102248.50
2023-04-09T23:41:04.790Z,102242.31
2023-04-09T23:43:33.255Z,102243.19
2023-04-09T23:46:03.118Z,102238.75
2023-04-09T23:48:31.511Z,102246.59
2023-04-09T23:50:59.984Z,102236.09
2023-04-09T23:53:32.378Z,102232.59
2023-04-09T23:56:00.750Z,102235.19
2023-04-09T23:58:29.230Z,102237.75
